sensor_id;sensor_type;location;lat;lon;timestamp;P1;durP1;ratioP1;P2;durP2;ratioP2
23171;SDS011;11754;42.664;23.594;2023-02-22T00:01:05;32.28;;;16.15;;
23171;SDS011;11754;42.664;23.594;2023-02-22T00:03:43;46.15;;;24.60;;
23171;SDS011;11754;42.664;23.594;2023-02-22T00:06:14;35.30;;;18.55;;
23171;SDS011;11754;42.664;23.594;2023-02-22T00:08:40;31.77;;;17.33;;
23171;SDS011;11754;42.664;23.594;2023-02-22T00:11:07;30.33;;;16.98;;
23171;SDS011;11754;42.664;23.594;2023-02-22T00:13:33;27.40;;;16.95;;
23171;SDS011;11754;42.664;23.594;2023-02-22T00:16:00;28.25;;;16.10;;
23171;SDS011;11754;42.664;23.594;2023-02-22T00:18:26;30.25;;;16.15;;
23171;SDS011;11754;42.664;23.594;2023-02-22T00:20:53;29.42;;;15.70;;
23171;SDS011;11754;42.664;23.594;2023-02-22T00:23:20;30.48;;;15.77;;
23171;SDS011;11754;42.664;23.594;2023-02-22T00:25:47;30.08;;;15.93;;
23171;SDS011;11754;42.664;23.594;2023-02-22T00:28:15;27.73;;;15.13;;
23171;SDS011;11754;42.664;23.594;2023-02-22T00:30:42;32.72;;;18.65;;
23171;SDS011;11754;42.664;23.594;2023-02-22T00:33:08;45.92;;;23.33;;
23171;SDS011;11754;42.664;23.594;2023-02-22T00:35:35;33.25;;;17.58;;
23171;SDS011;11754;42.664;23.594;2023-02-22T00:38:01;25.98;;;15.60;;
23171;SDS011;11754;42.664;23.594;2023-02-22T00:40:28;30.20;;;15.63;;
23171;SDS011;11754;42.664;23.594;2023-02-22T00:42:55;25.27;;;14.93;;
23171;SDS011;11754;42.664;23.594;2023-02-22T00:45:23;27.92;;;15.57;;
23171;SDS011;11754;42.664;23.594;2023-02-22T00:47:49;35.45;;;17.23;;
23171;SDS011;11754;42.664;23.594;2023-02-22T00:50:16;34.83;;;16.75;;
23171;SDS011;11754;42.664;23.594;2023-02-22T00:52:43;31.98;;;18.98;;
23171;SDS011;11754;42.664;23.594;2023-02-22T00:55:09;35.90;;;18.83;;
23171;SDS011;11754;42.664;23.594;2023-02-22T00:57:39;24.67;;;12.50;;
23171;SDS011;11754;42.664;23.594;2023-02-22T01:00:06;25.17;;;13.48;;
23171;SDS011;11754;42.664;23.594;2023-02-22T01:02:39;23.73;;;12.13;;
23171;SDS011;11754;42.664;23.594;2023-02-22T01:05:06;24.48;;;12.02;;
23171;SDS011;11754;42.664;23.594;2023-02-22T01:07:36;33.20;;;14.90;;
23171;SDS011;11754;42.664;23.594;2023-02-22T01:10:02;28.63;;;13.23;;
23171;SDS011;11754;42.664;23.594;2023-02-22T01:12:28;22.85;;;12.55;;
23171;SDS011;11754;42.664;23.594;2023-02-22T01:14:54;25.92;;;13.20;;
23171;SDS011;11754;42.664;23.594;2023-02-22T01:17:21;23.67;;;12.18;;
23171;SDS011;11754;42.664;23.594;2023-02-22T01:19:47;25.90;;;12.88;;
23171;SDS011;11754;42.664;23.594;2023-02-22T01:22:13;29.50;;;13.50;;
23171;SDS011;11754;42.664;23.594;2023-02-22T01:24:38;47.38;;;20.73;;
23171;SDS011;11754;42.664;23.594;2023-02-22T01:27:04;42.17;;;19.85;;
23171;SDS011;11754;42.664;23.594;2023-02-22T01:29:29;41.15;;;20.17;;
23171;SDS011;11754;42.664;23.594;2023-02-22T01:31:54;40.25;;;19.92;;
23171;SDS011;11754;42.664;23.594;2023-02-22T01:34:21;36.58;;;16.70;;
23171;SDS011;11754;42.664;23.594;2023-02-22T01:36:47;30.85;;;15.63;;
23171;SDS011;11754;42.664;23.594;2023-02-22T01:39:13;26.45;;;14.43;;
23171;SDS011;11754;42.664;23.594;2023-02-22T01:41:42;30.90;;;16.83;;
23171;SDS011;11754;42.664;23.594;2023-02-22T01:46:46;34.63;;;16.55;;
23171;SDS011;11754;42.664;23.594;2023-02-22T01:49:12;25.27;;;13.63;;
23171;SDS011;11754;42.664;23.594;2023-02-22T01:51:40;25.63;;;12.27;;
23171;SDS011;11754;42.664;23.594;2023-02-22T01:54:11;19.73;;;10.30;;
23171;SDS011;11754;42.664;23.594;2023-02-22T01:56:38;18.33;;;10.18;;
23171;SDS011;11754;42.664;23.594;2023-02-22T01:59:09;16.98;;;10.15;;
23171;SDS011;11754;42.664;23.594;2023-02-22T02:01:37;22.08;;;10.55;;
23171;SDS011;11754;42.664;23.594;2023-02-22T02:04:07;18.83;;;10.82;;
23171;SDS011;11754;42.664;23.594;2023-02-22T02:06:37;19.63;;;11.30;;
23171;SDS011;11754;42.664;23.594;2023-02-22T02:11:46;21.40;;;11.15;;
23171;SDS011;11754;42.664;23.594;2023-02-22T02:14:13;20.38;;;10.55;;
23171;SDS011;11754;42.664;23.594;2023-02-22T02:16:48;23.00;;;12.82;;
23171;SDS011;11754;42.664;23.594;2023-02-22T02:24:50;39.63;;;18.30;;
23171;SDS011;11754;42.664;23.594;2023-02-22T02:27:21;62.15;;;21.42;;
23171;SDS011;11754;42.664;23.594;2023-02-22T02:32:36;48.22;;;20.20;;
23171;SDS011;11754;42.664;23.594;2023-02-22T02:35:30;36.85;;;18.17;;
23171;SDS011;11754;42.664;23.594;2023-02-22T02:38:43;49.33;;;21.13;;
23171;SDS011;11754;42.664;23.594;2023-02-22T02:41:29;62.65;;;23.20;;
23171;SDS011;11754;42.664;23.594;2023-02-22T02:46:50;26.45;;;13.60;;
23171;SDS011;11754;42.664;23.594;2023-02-22T02:52:28;28.08;;;13.60;;
23171;SDS011;11754;42.664;23.594;2023-02-22T02:54:56;32.22;;;16.20;;
23171;SDS011;11754;42.664;23.594;2023-02-22T02:57:23;35.90;;;16.55;;
23171;SDS011;11754;42.664;23.594;2023-02-22T02:59:49;36.42;;;17.48;;
23171;SDS011;11754;42.664;23.594;2023-02-22T03:16:32;25.05;;;11.27;;
23171;SDS011;11754;42.664;23.594;2023-02-22T03:19:10;27.95;;;11.73;;
23171;SDS011;11754;42.664;23.594;2023-02-22T03:24:26;19.55;;;10.80;;
23171;SDS011;11754;42.664;23.594;2023-02-22T03:26:58;28.10;;;14.50;;
23171;SDS011;11754;42.664;23.594;2023-02-22T03:29:26;25.58;;;12.93;;
23171;SDS011;11754;42.664;23.594;2023-02-22T03:31:59;33.72;;;16.95;;
23171;SDS011;11754;42.664;23.594;2023-02-22T03:34:28;35.60;;;18.15;;
23171;SDS011;11754;42.664;23.594;2023-02-22T03:37:15;33.03;;;17.45;;
23171;SDS011;11754;42.664;23.594;2023-02-22T03:39:43;35.80;;;19.40;;
23171;SDS011;11754;42.664;23.594;2023-02-22T03:42:16;28.42;;;14.50;;
23171;SDS011;11754;42.664;23.594;2023-02-22T03:44:50;28.90;;;14.75;;
23171;SDS011;11754;42.664;23.594;2023-02-22T03:47:24;81.75;;;43.05;;
23171;SDS011;11754;42.664;23.594;2023-02-22T03:49:56;52.92;;;28.75;;
23171;SDS011;11754;42.664;23.594;2023-02-22T03:52:26;32.97;;;17.00;;
23171;SDS011;11754;42.664;23.594;2023-02-22T03:54:51;38.83;;;18.63;;
23171;SDS011;11754;42.664;23.594;2023-02-22T03:59:50;27.20;;;15.38;;
23171;SDS011;11754;42.664;23.594;2023-02-22T04:02:16;28.00;;;15.52;;
23171;SDS011;11754;42.664;23.594;2023-02-22T04:04:43;32.45;;;17.10;;
23171;SDS011;11754;42.664;23.594;2023-02-22T04:07:10;24.33;;;13.13;;
23171;SDS011;11754;42.664;23.594;2023-02-22T04:09:35;28.55;;;15.18;;
23171;SDS011;11754;42.664;23.594;2023-02-22T04:12:01;24.88;;;13.95;;
23171;SDS011;11754;42.664;23.594;2023-02-22T04:14:26;34.13;;;15.30;;
23171;SDS011;11754;42.664;23.594;2023-02-22T04:16:52;22.15;;;12.20;;
23171;SDS011;11754;42.664;23.594;2023-02-22T04:19:17;26.88;;;15.18;;
23171;SDS011;11754;42.664;23.594;2023-02-22T04:21:43;28.38;;;14.90;;
23171;SDS011;11754;42.664;23.594;2023-02-22T04:24:08;20.08;;;11.63;;
23171;SDS011;11754;42.664;23.594;2023-02-22T04:26:33;21.50;;;11.30;;
23171;SDS011;11754;42.664;23.594;2023-02-22T04:28:59;27.50;;;11.25;;
23171;SDS011;11754;42.664;23.594;2023-02-22T04:31:24;18.83;;;12.15;;
23171;SDS011;11754;42.664;23.594;2023-02-22T04:33:49;19.40;;;11.00;;
23171;SDS011;11754;42.664;23.594;2023-02-22T04:36:15;22.95;;;10.40;;
23171;SDS011;11754;42.664;23.594;2023-02-22T04:38:41;19.50;;;9.80;;
23171;SDS011;11754;42.664;23.594;2023-02-22T04:41:06;14.77;;;9.00;;
23171;SDS011;11754;42.664;23.594;2023-02-22T04:43:32;17.33;;;11.15;;
23171;SDS011;11754;42.664;23.594;2023-02-22T04:45:57;19.42;;;10.90;;
23171;SDS011;11754;42.664;23.594;2023-02-22T04:48:23;18.88;;;9.63;;
23171;SDS011;11754;42.664;23.594;2023-02-22T04:50:48;42.80;;;19.73;;
23171;SDS011;11754;42.664;23.594;2023-02-22T04:53:15;24.40;;;12.73;;
23171;SDS011;11754;42.664;23.594;2023-02-22T04:55:40;25.83;;;12.95;;
23171;SDS011;11754;42.664;23.594;2023-02-22T04:58:05;20.52;;;11.73;;
23171;SDS011;11754;42.664;23.594;2023-02-22T05:00:31;20.48;;;11.18;;
23171;SDS011;11754;42.664;23.594;2023-02-22T05:02:56;24.65;;;11.70;;
23171;SDS011;11754;42.664;23.594;2023-02-22T05:05:22;22.02;;;13.27;;
23171;SDS011;11754;42.664;23.594;2023-02-22T05:07:47;28.10;;;13.60;;
23171;SDS011;11754;42.664;23.594;2023-02-22T05:10:14;67.97;;;32.22;;
23171;SDS011;11754;42.664;23.594;2023-02-22T05:12:40;129.52;;;54.75;;
23171;SDS011;11754;42.664;23.594;2023-02-22T05:15:06;174.43;;;62.25;;
23171;SDS011;11754;42.664;23.594;2023-02-22T05:17:32;140.05;;;53.42;;
23171;SDS011;11754;42.664;23.594;2023-02-22T05:19:58;97.75;;;40.25;;
23171;SDS011;11754;42.664;23.594;2023-02-22T05:22:23;77.65;;;36.58;;
23171;SDS011;11754;42.664;23.594;2023-02-22T05:24:49;55.38;;;25.90;;
23171;SDS011;11754;42.664;23.594;2023-02-22T05:27:16;49.75;;;24.33;;
23171;SDS011;11754;42.664;23.594;2023-02-22T05:29:42;59.67;;;28.95;;
23171;SDS011;11754;42.664;23.594;2023-02-22T05:32:07;55.63;;;26.77;;
23171;SDS011;11754;42.664;23.594;2023-02-22T05:34:32;44.47;;;22.42;;
23171;SDS011;11754;42.664;23.594;2023-02-22T05:36:58;36.78;;;20.77;;
23171;SDS011;11754;42.664;23.594;2023-02-22T05:39:23;40.22;;;19.15;;
23171;SDS011;11754;42.664;23.594;2023-02-22T05:41:49;29.30;;;16.92;;
23171;SDS011;11754;42.664;23.594;2023-02-22T05:44:14;38.53;;;18.08;;
23171;SDS011;11754;42.664;23.594;2023-02-22T05:46:40;32.97;;;19.30;;
23171;SDS011;11754;42.664;23.594;2023-02-22T05:49:05;31.45;;;17.45;;
23171;SDS011;11754;42.664;23.594;2023-02-22T05:51:30;39.45;;;19.33;;
23171;SDS011;11754;42.664;23.594;2023-02-22T05:53:57;39.53;;;19.80;;
23171;SDS011;11754;42.664;23.594;2023-02-22T05:56:23;30.80;;;16.10;;
23171;SDS011;11754;42.664;23.594;2023-02-22T05:58:50;51.63;;;22.08;;
23171;SDS011;11754;42.664;23.594;2023-02-22T06:01:16;70.13;;;31.08;;
23171;SDS011;11754;42.664;23.594;2023-02-22T06:03:41;68.30;;;27.98;;
23171;SDS011;11754;42.664;23.594;2023-02-22T06:06:10;61.25;;;25.98;;
23171;SDS011;11754;42.664;23.594;2023-02-22T06:08:35;50.30;;;20.95;;
23171;SDS011;11754;42.664;23.594;2023-02-22T06:11:00;48.15;;;20.25;;
23171;SDS011;11754;42.664;23.594;2023-02-22T06:13:26;36.92;;;17.95;;
23171;SDS011;11754;42.664;23.594;2023-02-22T06:15:51;30.02;;;15.85;;
23171;SDS011;11754;42.664;23.594;2023-02-22T06:18:17;38.25;;;15.07;;
23171;SDS011;11754;42.664;23.594;2023-02-22T06:20:42;44.58;;;18.85;;
23171;SDS011;11754;42.664;23.594;2023-02-22T06:23:08;35.08;;;16.23;;
23171;SDS011;11754;42.664;23.594;2023-02-22T06:25:33;25.50;;;13.95;;
23171;SDS011;11754;42.664;23.594;2023-02-22T06:27:59;36.92;;;16.95;;
23171;SDS011;11754;42.664;23.594;2023-02-22T06:30:25;37.53;;;16.10;;
23171;SDS011;11754;42.664;23.594;2023-02-22T06:32:51;31.52;;;15.85;;
23171;SDS011;11754;42.664;23.594;2023-02-22T06:35:17;25.73;;;13.73;;
23171;SDS011;11754;42.664;23.594;2023-02-22T06:37:43;27.55;;;13.27;;
23171;SDS011;11754;42.664;23.594;2023-02-22T06:40:09;30.42;;;13.75;;
23171;SDS011;11754;42.664;23.594;2023-02-22T06:42:35;32.97;;;15.10;;
23171;SDS011;11754;42.664;23.594;2023-02-22T06:45:01;38.60;;;15.50;;
23171;SDS011;11754;42.664;23.594;2023-02-22T06:47:26;35.40;;;14.75;;
23171;SDS011;11754;42.664;23.594;2023-02-22T06:49:52;31.77;;;16.45;;
23171;SDS011;11754;42.664;23.594;2023-02-22T06:52:21;46.60;;;21.35;;
23171;SDS011;11754;42.664;23.594;2023-02-22T06:54:47;67.88;;;25.70;;
23171;SDS011;11754;42.664;23.594;2023-02-22T06:57:13;58.17;;;25.75;;
23171;SDS011;11754;42.664;23.594;2023-02-22T06:59:38;42.78;;;20.48;;
23171;SDS011;11754;42.664;23.594;2023-02-22T07:02:04;34.88;;;16.70;;
23171;SDS011;11754;42.664;23.594;2023-02-22T07:04:30;43.40;;;20.48;;
23171;SDS011;11754;42.664;23.594;2023-02-22T07:06:55;40.10;;;19.17;;
23171;SDS011;11754;42.664;23.594;2023-02-22T07:09:21;33.25;;;18.45;;
23171;SDS011;11754;42.664;23.594;2023-02-22T07:11:46;27.50;;;16.45;;
23171;SDS011;11754;42.664;23.594;2023-02-22T07:14:12;42.85;;;17.00;;
23171;SDS011;11754;42.664;23.594;2023-02-22T07:16:37;25.05;;;13.63;;
23171;SDS011;11754;42.664;23.594;2023-02-22T07:19:02;21.85;;;12.43;;
23171;SDS011;11754;42.664;23.594;2023-02-22T07:21:28;27.23;;;13.70;;
23171;SDS011;11754;42.664;23.594;2023-02-22T07:23:55;24.08;;;12.40;;
23171;SDS011;11754;42.664;23.594;2023-02-22T07:26:23;20.90;;;11.32;;
23171;SDS011;11754;42.664;23.594;2023-02-22T07:28:49;26.10;;;13.40;;
23171;SDS011;11754;42.664;23.594;2023-02-22T07:31:15;17.88;;;10.20;;
23171;SDS011;11754;42.664;23.594;2023-02-22T07:33:41;17.38;;;9.95;;
23171;SDS011;11754;42.664;23.594;2023-02-22T07:36:06;19.33;;;9.88;;
23171;SDS011;11754;42.664;23.594;2023-02-22T07:38:32;20.77;;;10.48;;
23171;SDS011;11754;42.664;23.594;2023-02-22T07:40:57;22.70;;;13.13;;
23171;SDS011;11754;42.664;23.594;2023-02-22T07:43:24;20.23;;;10.95;;
23171;SDS011;11754;42.664;23.594;2023-02-22T07:45:51;19.90;;;12.25;;
23171;SDS011;11754;42.664;23.594;2023-02-22T07:48:18;19.88;;;12.07;;
23171;SDS011;11754;42.664;23.594;2023-02-22T07:50:44;19.88;;;12.20;;
23171;SDS011;11754;42.664;23.594;2023-02-22T07:53:11;22.30;;;11.70;;
23171;SDS011;11754;42.664;23.594;2023-02-22T07:55:38;20.33;;;10.35;;
23171;SDS011;11754;42.664;23.594;2023-02-22T07:58:05;20.75;;;10.85;;
23171;SDS011;11754;42.664;23.594;2023-02-22T08:00:33;20.50;;;11.15;;
23171;SDS011;11754;42.664;23.594;2023-02-22T08:03:08;18.17;;;10.73;;
23171;SDS011;11754;42.664;23.594;2023-02-22T08:05:37;17.50;;;10.40;;
23171;SDS011;11754;42.664;23.594;2023-02-22T08:08:04;19.77;;;11.68;;
23171;SDS011;11754;42.664;23.594;2023-02-22T08:10:30;15.85;;;10.70;;
23171;SDS011;11754;42.664;23.594;2023-02-22T08:12:57;25.40;;;11.27;;
23171;SDS011;11754;42.664;23.594;2023-02-22T08:15:26;17.42;;;10.57;;
23171;SDS011;11754;42.664;23.594;2023-02-22T08:17:55;19.25;;;11.35;;
23171;SDS011;11754;42.664;23.594;2023-02-22T08:20:21;22.88;;;11.90;;
23171;SDS011;11754;42.664;23.594;2023-02-22T08:22:47;22.63;;;10.60;;
23171;SDS011;11754;42.664;23.594;2023-02-22T08:25:14;21.60;;;8.52;;
23171;SDS011;11754;42.664;23.594;2023-02-22T08:27:40;12.75;;;8.20;;
23171;SDS011;11754;42.664;23.594;2023-02-22T08:30:07;16.90;;;8.43;;
23171;SDS011;11754;42.664;23.594;2023-02-22T08:32:33;17.63;;;8.68;;
23171;SDS011;11754;42.664;23.594;2023-02-22T08:34:59;15.40;;;8.65;;
23171;SDS011;11754;42.664;23.594;2023-02-22T08:37:26;22.30;;;8.02;;
23171;SDS011;11754;42.664;23.594;2023-02-22T08:39:52;18.52;;;8.10;;
23171;SDS011;11754;42.664;23.594;2023-02-22T08:42:17;15.63;;;8.07;;
23171;SDS011;11754;42.664;23.594;2023-02-22T08:44:43;19.50;;;8.25;;
23171;SDS011;11754;42.664;23.594;2023-02-22T08:47:08;9.55;;;6.85;;
23171;SDS011;11754;42.664;23.594;2023-02-22T08:49:33;13.52;;;6.30;;
23171;SDS011;11754;42.664;23.594;2023-02-22T08:51:59;10.15;;;6.57;;
23171;SDS011;11754;42.664;23.594;2023-02-22T08:54:25;11.32;;;7.20;;
23171;SDS011;11754;42.664;23.594;2023-02-22T08:56:50;10.90;;;7.10;;
23171;SDS011;11754;42.664;23.594;2023-02-22T08:59:16;10.07;;;6.80;;
23171;SDS011;11754;42.664;23.594;2023-02-22T09:01:41;12.45;;;7.05;;
23171;SDS011;11754;42.664;23.594;2023-02-22T09:04:07;11.23;;;7.22;;
23171;SDS011;11754;42.664;23.594;2023-02-22T09:06:32;14.70;;;7.00;;
23171;SDS011;11754;42.664;23.594;2023-02-22T09:08:58;10.57;;;7.00;;
23171;SDS011;11754;42.664;23.594;2023-02-22T09:11:23;10.95;;;7.18;;
23171;SDS011;11754;42.664;23.594;2023-02-22T09:13:49;14.02;;;7.57;;
23171;SDS011;11754;42.664;23.594;2023-02-22T09:16:14;12.68;;;6.80;;
23171;SDS011;11754;42.664;23.594;2023-02-22T09:18:40;11.68;;;6.43;;
23171;SDS011;11754;42.664;23.594;2023-02-22T09:21:05;9.77;;;6.63;;
23171;SDS011;11754;42.664;23.594;2023-02-22T09:23:30;10.52;;;6.25;;
23171;SDS011;11754;42.664;23.594;2023-02-22T09:25:56;8.27;;;6.47;;
23171;SDS011;11754;42.664;23.594;2023-02-22T09:28:24;10.02;;;6.55;;
23171;SDS011;11754;42.664;23.594;2023-02-22T09:30:50;10.73;;;6.63;;
23171;SDS011;11754;42.664;23.594;2023-02-22T09:33:16;14.88;;;6.50;;
23171;SDS011;11754;42.664;23.594;2023-02-22T09:35:44;22.23;;;6.50;;
23171;SDS011;11754;42.664;23.594;2023-02-22T09:38:11;7.60;;;5.35;;
23171;SDS011;11754;42.664;23.594;2023-02-22T09:43:44;8.93;;;6.00;;
23171;SDS011;11754;42.664;23.594;2023-02-22T09:51:41;11.48;;;5.07;;
23171;SDS011;11754;42.664;23.594;2023-02-22T09:54:20;11.90;;;5.78;;
23171;SDS011;11754;42.664;23.594;2023-02-22T09:56:51;33.72;;;7.50;;
23171;SDS011;11754;42.664;23.594;2023-02-22T09:59:26;14.50;;;6.38;;
23171;SDS011;11754;42.664;23.594;2023-02-22T10:02:01;8.45;;;4.53;;
23171;SDS011;11754;42.664;23.594;2023-02-22T10:04:51;12.20;;;4.72;;
23171;SDS011;11754;42.664;23.594;2023-02-22T10:07:29;14.98;;;5.53;;
23171;SDS011;11754;42.664;23.594;2023-02-22T10:09:58;7.78;;;4.57;;
23171;SDS011;11754;42.664;23.594;2023-02-22T10:21:00;13.00;;;4.68;;
23171;SDS011;11754;42.664;23.594;2023-02-22T10:26:24;12.90;;;4.05;;
23171;SDS011;11754;42.664;23.594;2023-02-22T10:31:29;6.63;;;3.75;;
23171;SDS011;11754;42.664;23.594;2023-02-22T10:33:59;9.48;;;3.90;;
23171;SDS011;11754;42.664;23.594;2023-02-22T10:36:26;7.57;;;3.72;;
23171;SDS011;11754;42.664;23.594;2023-02-22T10:39:09;16.08;;;4.32;;
23171;SDS011;11754;42.664;23.594;2023-02-22T10:41:50;6.88;;;2.75;;
23171;SDS011;11754;42.664;23.594;2023-02-22T10:44:18;6.20;;;2.88;;
23171;SDS011;11754;42.664;23.594;2023-02-22T10:46:44;6.93;;;2.83;;
23171;SDS011;11754;42.664;23.594;2023-02-22T10:49:10;7.50;;;2.72;;
23171;SDS011;11754;42.664;23.594;2023-02-22T10:51:42;7.70;;;3.20;;
23171;SDS011;11754;42.664;23.594;2023-02-22T10:54:17;5.25;;;2.95;;
23171;SDS011;11754;42.664;23.594;2023-02-22T10:56:49;6.50;;;3.20;;
23171;SDS011;11754;42.664;23.594;2023-02-22T10:59:28;6.07;;;3.03;;
23171;SDS011;11754;42.664;23.594;2023-02-22T11:01:56;11.52;;;3.50;;
23171;SDS011;11754;42.664;23.594;2023-02-22T11:04:22;9.30;;;2.70;;
23171;SDS011;11754;42.664;23.594;2023-02-22T11:09:23;9.15;;;2.40;;
23171;SDS011;11754;42.664;23.594;2023-02-22T11:11:50;6.60;;;2.50;;
23171;SDS011;11754;42.664;23.594;2023-02-22T11:14:32;5.78;;;2.30;;
23171;SDS011;11754;42.664;23.594;2023-02-22T11:16:58;11.93;;;3.10;;
23171;SDS011;11754;42.664;23.594;2023-02-22T11:19:30;7.03;;;2.47;;
23171;SDS011;11754;42.664;23.594;2023-02-22T11:22:20;5.85;;;2.10;;
23171;SDS011;11754;42.664;23.594;2023-02-22T11:25:02;6.63;;;2.10;;
23171;SDS011;11754;42.664;23.594;2023-02-22T11:27:36;5.55;;;1.60;;
23171;SDS011;11754;42.664;23.594;2023-02-22T11:32:58;10.35;;;2.42;;
23171;SDS011;11754;42.664;23.594;2023-02-22T11:35:35;4.82;;;1.80;;
23171;SDS011;11754;42.664;23.594;2023-02-22T11:38:20;6.55;;;1.80;;
23171;SDS011;11754;42.664;23.594;2023-02-22T11:41:03;6.00;;;1.90;;
23171;SDS011;11754;42.664;23.594;2023-02-22T11:43:42;12.88;;;1.98;;
23171;SDS011;11754;42.664;23.594;2023-02-22T11:46:13;6.22;;;1.60;;
23171;SDS011;11754;42.664;23.594;2023-02-22T11:56:48;5.67;;;1.20;;
23171;SDS011;11754;42.664;23.594;2023-02-22T12:20:43;7.30;;;1.42;;
23171;SDS011;11754;42.664;23.594;2023-02-22T12:23:16;6.70;;;1.80;;
23171;SDS011;11754;42.664;23.594;2023-02-22T12:25:57;4.18;;;1.40;;
23171;SDS011;11754;42.664;23.594;2023-02-22T12:31:07;5.35;;;1.42;;
23171;SDS011;11754;42.664;23.594;2023-02-22T12:33:38;2.80;;;1.30;;
23171;SDS011;11754;42.664;23.594;2023-02-22T12:36:34;9.68;;;1.75;;
23171;SDS011;11754;42.664;23.594;2023-02-22T12:39:34;8.73;;;1.85;;
23171;SDS011;11754;42.664;23.594;2023-02-22T12:42:12;16.02;;;2.30;;
23171;SDS011;11754;42.664;23.594;2023-02-22T12:44:41;9.52;;;1.80;;
23171;SDS011;11754;42.664;23.594;2023-02-22T12:47:18;4.65;;;1.30;;
23171;SDS011;11754;42.664;23.594;2023-02-22T12:50:06;9.90;;;1.60;;
23171;SDS011;11754;42.664;23.594;2023-02-22T12:53:03;10.45;;;1.58;;
23171;SDS011;11754;42.664;23.594;2023-02-22T12:59:09;3.20;;;1.30;;
23171;SDS011;11754;42.664;23.594;2023-02-22T13:01:44;5.85;;;1.45;;
23171;SDS011;11754;42.664;23.594;2023-02-22T13:04:14;2.95;;;1.23;;
23171;SDS011;11754;42.664;23.594;2023-02-22T13:09:43;10.15;;;1.95;;
23171;SDS011;11754;42.664;23.594;2023-02-22T13:28:05;4.22;;;1.17;;
23171;SDS011;11754;42.664;23.594;2023-02-22T13:36:25;2.55;;;1.20;;
23171;SDS011;11754;42.664;23.594;2023-02-22T13:39:15;5.22;;;1.50;;
23171;SDS011;11754;42.664;23.594;2023-02-22T13:52:24;7.60;;;2.10;;
23171;SDS011;11754;42.664;23.594;2023-02-22T13:54:54;4.32;;;1.30;;
23171;SDS011;11754;42.664;23.594;2023-02-22T13:57:41;5.93;;;1.60;;
23171;SDS011;11754;42.664;23.594;2023-02-22T14:08:07;8.50;;;1.67;;
23171;SDS011;11754;42.664;23.594;2023-02-22T14:11:04;6.25;;;1.80;;
23171;SDS011;11754;42.664;23.594;2023-02-22T14:16:28;2.90;;;1.33;;
23171;SDS011;11754;42.664;23.594;2023-02-22T14:21:25;3.72;;;1.15;;
23171;SDS011;11754;42.664;23.594;2023-02-22T14:23:51;4.35;;;1.20;;
23171;SDS011;11754;42.664;23.594;2023-02-22T14:26:28;4.10;;;0.98;;
23171;SDS011;11754;42.664;23.594;2023-02-22T14:29:17;4.32;;;1.00;;
23171;SDS011;11754;42.664;23.594;2023-02-22T14:36:40;7.43;;;1.40;;
23171;SDS011;11754;42.664;23.594;2023-02-22T14:41:57;18.50;;;2.67;;
23171;SDS011;11754;42.664;23.594;2023-02-22T14:47:08;5.57;;;1.00;;
23171;SDS011;11754;42.664;23.594;2023-02-22T14:49:45;4.45;;;1.27;;
23171;SDS011;11754;42.664;23.594;2023-02-22T14:52:17;9.48;;;1.77;;
23171;SDS011;11754;42.664;23.594;2023-02-22T14:54:55;2.85;;;1.13;;
23171;SDS011;11754;42.664;23.594;2023-02-22T15:03:01;2.75;;;1.10;;
23171;SDS011;11754;42.664;23.594;2023-02-22T15:05:28;3.63;;;1.40;;
23171;SDS011;11754;42.664;23.594;2023-02-22T15:08:04;5.18;;;1.60;;
23171;SDS011;11754;42.664;23.594;2023-02-22T15:13:19;3.88;;;1.40;;
23171;SDS011;11754;42.664;23.594;2023-02-22T15:15:57;2.45;;;1.35;;
23171;SDS011;11754;42.664;23.594;2023-02-22T15:18:26;3.08;;;1.35;;
23171;SDS011;11754;42.664;23.594;2023-02-22T15:20:57;5.28;;;1.40;;
23171;SDS011;11754;42.664;23.594;2023-02-22T15:23:28;4.77;;;1.50;;
23171;SDS011;11754;42.664;23.594;2023-02-22T15:26:03;4.40;;;1.30;;
23171;SDS011;11754;42.664;23.594;2023-02-22T15:28:29;5.78;;;1.38;;
23171;SDS011;11754;42.664;23.594;2023-02-22T15:33:47;6.00;;;1.52;;
23171;SDS011;11754;42.664;23.594;2023-02-22T15:36:14;5.82;;;1.42;;
23171;SDS011;11754;42.664;23.594;2023-02-22T15:38:45;11.43;;;2.03;;
23171;SDS011;11754;42.664;23.594;2023-02-22T15:41:19;11.95;;;1.77;;
23171;SDS011;11754;42.664;23.594;2023-02-22T15:44:02;10.90;;;1.80;;
23171;SDS011;11754;42.664;23.594;2023-02-22T15:46:30;4.75;;;1.83;;
23171;SDS011;11754;42.664;23.594;2023-02-22T15:49:07;5.30;;;2.03;;
23171;SDS011;11754;42.664;23.594;2023-02-22T15:51:43;6.35;;;2.30;;
23171;SDS011;11754;42.664;23.594;2023-02-22T15:54:13;14.77;;;2.88;;
23171;SDS011;11754;42.664;23.594;2023-02-22T15:56:40;4.85;;;2.47;;
23171;SDS011;11754;42.664;23.594;2023-02-22T15:59:14;5.97;;;2.65;;
23171;SDS011;11754;42.664;23.594;2023-02-22T16:01:45;5.47;;;2.80;;
23171;SDS011;11754;42.664;23.594;2023-02-22T16:04:19;10.95;;;2.80;;
23171;SDS011;11754;42.664;23.594;2023-02-22T16:06:46;9.70;;;3.40;;
23171;SDS011;11754;42.664;23.594;2023-02-22T16:09:20;9.00;;;3.00;;
23171;SDS011;11754;42.664;23.594;2023-02-22T16:11:50;8.25;;;3.55;;
23171;SDS011;11754;42.664;23.594;2023-02-22T16:19:54;8.48;;;3.55;;
23171;SDS011;11754;42.664;23.594;2023-02-22T16:22:43;9.40;;;3.83;;
23171;SDS011;11754;42.664;23.594;2023-02-22T16:27:58;17.10;;;6.03;;
23171;SDS011;11754;42.664;23.594;2023-02-22T16:30:35;13.70;;;5.22;;
23171;SDS011;11754;42.664;23.594;2023-02-22T16:33:04;12.43;;;5.40;;
23171;SDS011;11754;42.664;23.594;2023-02-22T16:35:40;11.77;;;7.28;;
23171;SDS011;11754;42.664;23.594;2023-02-22T16:38:15;13.55;;;7.60;;
23171;SDS011;11754;42.664;23.594;2023-02-22T16:43:22;15.00;;;8.30;;
23171;SDS011;11754;42.664;23.594;2023-02-22T16:45:53;21.17;;;11.57;;
23171;SDS011;11754;42.664;23.594;2023-02-22T16:48:26;19.63;;;14.68;;
23171;SDS011;11754;42.664;23.594;2023-02-22T16:51:06;15.55;;;8.65;;
23171;SDS011;11754;42.664;23.594;2023-02-22T16:56:01;13.70;;;7.45;;
23171;SDS011;11754;42.664;23.594;2023-02-22T16:58:32;11.93;;;6.35;;
23171;SDS011;11754;42.664;23.594;2023-02-22T17:00:59;9.32;;;4.93;;
23171;SDS011;11754;42.664;23.594;2023-02-22T17:03:25;11.95;;;5.38;;
23171;SDS011;11754;42.664;23.594;2023-02-22T17:05:50;9.50;;;5.85;;
23171;SDS011;11754;42.664;23.594;2023-02-22T17:08:16;13.50;;;6.40;;
23171;SDS011;11754;42.664;23.594;2023-02-22T17:10:42;35.22;;;16.95;;
23171;SDS011;11754;42.664;23.594;2023-02-22T17:13:10;22.67;;;10.65;;
23171;SDS011;11754;42.664;23.594;2023-02-22T17:15:36;22.10;;;10.77;;
23171;SDS011;11754;42.664;23.594;2023-02-22T17:18:02;25.25;;;16.35;;
23171;SDS011;11754;42.664;23.594;2023-02-22T17:20:38;26.08;;;15.40;;
23171;SDS011;11754;42.664;23.594;2023-02-22T17:23:06;25.98;;;15.02;;
23171;SDS011;11754;42.664;23.594;2023-02-22T17:25:36;24.13;;;14.30;;
23171;SDS011;11754;42.664;23.594;2023-02-22T17:28:03;17.20;;;8.90;;
23171;SDS011;11754;42.664;23.594;2023-02-22T17:30:30;15.52;;;8.77;;
23171;SDS011;11754;42.664;23.594;2023-02-22T17:32:57;13.65;;;8.20;;
23171;SDS011;11754;42.664;23.594;2023-02-22T17:35:27;17.92;;;8.05;;
23171;SDS011;11754;42.664;23.594;2023-02-22T17:37:55;16.45;;;6.85;;